Thunder radar more information blitzortung!


Radar de pluja more information rain snow radar


Visita la nostra xarxa de llocs de meteo:

Template documentation
and downloads

And another site



No particular awareness of the weather is required.    There are no Weather-warnings

Pagina Historial Weather Underground text

Diari Resum Desembre 22, 2017 Unitats:  Imperial    Mètric   Tant
« Previous Dia
SegĂźent Dia »
Diari Setmana Mensual Anual Personalitzada
  Maxima: Minima: Media:
Temperatura: TemperatureC °F 4.5 °F 9.2 °F
Punt de rosada: DewpointC °F -1.3 °F 1.8 °F
Humitat: Humidity % 55 % 60 %
Wind Speed: WindSpeedKMH mph 0.0 mph 3.6 mph
RĂ fegues de vent: WindSpeedGustKMH mph - -
Vent:- - SE
Pression baro: PressurehPa in 1029.0 in -
Precipitacions: 0.0 in    
Historical Graphs
 
 
Dades de taula per Desembre 22, 2017
Temps Temperatura Punt de rosada Pression baro Vent Wind Speed RĂ fegues de vent Humitat Rainfall Rate (Hourly)
TemperatureC °F DewpointC °F PressurehPa in Calm     Humidity % HourlyPrecipMM in
00:03 5.5 °F -1.0 °F 1033.7 in WSW 3.7 mph 3.7 mph 63 % 0.0 in
00:05 5.5 °F -0.8 °F 1033.7 in WSW 3.9 mph 3.9 mph 64 % 0.0 in
00:06 5.5 °F -0.8 °F 1033.7 in West 3.9 mph 3.9 mph 64 % 0.0 in
00:15 5.2 °F -0.8 °F 1030.7 in NNE 1.6 mph 4.8 mph 65 % 0.0 in
00:35 5.0 °F -1.1 °F 1030.7 in NNE 1.6 mph 4.8 mph 65 % 0.0 in
00:55 5.0 °F -0.8 °F 1030.7 in WNW 1.6 mph 4.8 mph 66 % 0.0 in
01:05 4.9 °F -0.9 °F 1030.7 in NNE 1.6 mph 6.4 mph 66 % 0.0 in
01:15 4.8 °F -1.0 °F 1030.7 in North 3.2 mph 3.2 mph 66 % 0.0 in
01:25 4.5 °F -1.3 °F 1030.7 in West 1.6 mph 1.6 mph 66 % 0.0 in
01:35 4.5 °F -1.3 °F 1030.7 in WSW 3.2 mph 3.2 mph 66 % 0.0 in
01:55 4.7 °F -0.9 °F 1030.7 in NNE 1.6 mph 3.2 mph 67 % 0.0 in
02:05 4.6 °F -1.0 °F 1032.1 in NNE 1.6 mph 3.2 mph 67 % 0.0 in
02:15 4.6 °F -1.0 °F 1032.1 in NNW 1.6 mph 4.8 mph 67 % 0.0 in
02:25 4.5 °F -1.1 °F 1030.7 in NW 3.2 mph 3.2 mph 67 % 0.0 in
02:35 4.5 °F -1.1 °F 1030.7 in West 1.6 mph 4.8 mph 67 % 0.0 in
02:45 4.8 °F -0.6 °F 1030.7 in Calm   1.6 mph 68 % 0.0 in
03:05 6.0 °F 0.6 °F 1030.7 in NNW 1.6 mph 3.2 mph 68 % 0.0 in
03:15 6.4 °F 0.7 °F 1030.7 in NNE 1.6 mph 3.2 mph 67 % 0.0 in
03:25 6.7 °F 0.8 °F 1032.1 in NNE 3.2 mph 3.2 mph 66 % 0.0 in
03:35 6.8 °F 0.7 °F 1032.1 in NNE 1.6 mph 4.8 mph 65 % 0.0 in
03:45 7.1 °F 0.9 °F 1032.1 in North 3.2 mph 8.0 mph 65 % 0.0 in
03:55 7.4 °F 1.1 °F 1032.1 in NNE 3.2 mph 4.8 mph 64 % 0.0 in
04:05 7.5 °F 1.1 °F 1032.1 in North 3.2 mph 4.8 mph 64 % 0.0 in
04:15 7.9 °F 1.3 °F 1032.1 in North 3.2 mph 4.8 mph 63 % 0.0 in
04:20 8.5 °F 1.8 °F 1030.7 in NNE 3.2 mph 6.4 mph 63 % 0.0 in
10:23 8.7 °F 2.1 °F 1030.7 in ESE 4.7 mph 4.7 mph 63 % 0.0 in
10:24 8.7 °F 2.1 °F 1030.7 in NNW 3.7 mph 3.7 mph 63 % 0.0 in
10:29 8.6 °F 1.7 °F 1032.1 in East 5.6 mph 5.6 mph 62 % 0.0 in
10:30 8.6 °F 1.7 °F 1032.1 in ENE 5.6 mph 5.6 mph 62 % 0.0 in
10:35 8.2 °F 1.3 °F 1032.1 in East 4.7 mph 4.7 mph 62 % 0.0 in
10:40 8.3 °F 1.4 °F 1032.1 in NNE 3.9 mph 3.9 mph 62 % 0.0 in
10:45 8.9 °F 2.0 °F 1032.1 in ENE 7.4 mph 7.4 mph 62 % 0.0 in
10:46 9.0 °F 2.1 °F 1032.1 in NNE 7.4 mph 7.4 mph 62 % 0.0 in
10:50 9.4 °F 2.5 °F 1032.1 in NE 3.7 mph 3.7 mph 62 % 0.0 in
10:55 9.6 °F 2.7 °F 1032.1 in ENE 7.4 mph 7.4 mph 62 % 0.0 in
10:56 9.6 °F 2.7 °F 1032.1 in ENE 7.4 mph 7.4 mph 62 % 0.0 in
11:01 9.6 °F 2.4 °F 1032.1 in East 9.3 mph 9.3 mph 61 % 0.0 in
11:06 9.7 °F 2.6 °F 1032.1 in ENE 5.6 mph 5.6 mph 61 % 0.0 in
11:08 9.7 °F 2.6 °F 1032.1 in NE 10.0 mph 10.0 mph 61 % 0.0 in
11:13 9.7 °F 2.6 °F 1032.1 in NNE 7.4 mph 7.4 mph 61 % 0.0 in
11:15 9.7 °F 2.6 °F 1032.1 in North 3.9 mph 3.9 mph 61 % 0.0 in
11:19 9.7 °F 2.3 °F 1032.1 in North 5.6 mph 5.6 mph 60 % 0.0 in
11:24 9.8 °F 2.4 °F 1032.1 in NNW 9.3 mph 9.3 mph 60 % 0.0 in
11:28 10.0 °F 2.6 °F 1032.1 in NE 3.7 mph 5.0 mph 60 % 0.0 in
11:29 10.1 °F 2.7 °F 1032.1 in ENE 6.1 mph 6.1 mph 60 % 0.0 in
11:34 10.2 °F 2.8 °F 1032.1 in NNE 5.6 mph 5.6 mph 60 % 0.0 in
11:36 10.3 °F 2.9 °F 1032.1 in NE 3.7 mph 4.2 mph 60 % 0.0 in
11:37 10.3 °F 2.9 °F 1032.1 in East 5.6 mph 5.6 mph 60 % 0.0 in
11:42 10.4 °F 2.9 °F 1032.7 in ENE 4.7 mph 4.7 mph 60 % 0.0 in
11:43 10.5 °F 3.1 °F 1032.7 in NE 4.7 mph 4.7 mph 60 % 0.0 in
11:48 10.5 °F 2.8 °F 1032.7 in East 7.4 mph 7.4 mph 59 % 0.0 in
11:53 10.6 °F 3.2 °F 1032.7 in North 3.7 mph 3.7 mph 60 % 0.0 in
11:54 10.7 °F 3.0 °F 1032.7 in East 4.7 mph 4.7 mph 59 % 0.0 in
11:59 10.7 °F 3.0 °F 1032.1 in South 7.4 mph 7.4 mph 59 % 0.0 in
12:01 10.8 °F 3.1 °F 1032.1 in NNE 7.4 mph 7.4 mph 59 % 0.0 in
12:07 10.9 °F 3.2 °F 1032.1 in NNE 9.3 mph 9.3 mph 59 % 0.0 in
12:08 10.9 °F 3.2 °F 1032.1 in ENE 7.4 mph 7.4 mph 59 % 0.0 in
12:12 11.2 °F 3.5 °F 1032.1 in ENE 3.7 mph 3.7 mph 59 % 0.0 in
12:17 11.2 °F 3.2 °F 1032.1 in ENE 7.4 mph 7.4 mph 58 % 0.0 in
12:18 11.2 °F 3.2 °F 1032.1 in North 7.4 mph 7.4 mph 58 % 0.0 in
12:19 11.1 °F 3.2 °F 1032.1 in ENE 9.3 mph 9.3 mph 58 % 0.0 in
12:23 11.3 °F 3.3 °F 1032.1 in East 5.6 mph 5.6 mph 58 % 0.0 in
12:28 11.4 °F 3.4 °F 1032.1 in East 3.7 mph 3.9 mph 58 % 0.0 in
12:30 11.5 °F 3.5 °F 1032.1 in WNW 5.6 mph 5.6 mph 58 % 0.0 in
12:33 11.4 °F 3.4 °F 1032.1 in ENE 7.4 mph 7.4 mph 58 % 0.0 in
12:38 11.3 °F 3.1 °F 1032.1 in NNW 6.9 mph 6.9 mph 57 % 0.0 in
12:43 11.3 °F 3.1 °F 1030.7 in NNE 7.4 mph 7.4 mph 57 % 0.0 in
12:44 11.3 °F 3.1 °F 1030.7 in NNE 5.6 mph 5.6 mph 57 % 0.0 in
12:49 11.4 °F 3.2 °F 1030.7 in NE 7.4 mph 7.4 mph 57 % 0.0 in
12:50 11.4 °F 3.2 °F 1030.7 in North 4.7 mph 4.7 mph 57 % 0.0 in
12:55 11.5 °F 3.3 °F 1030.7 in NE 3.7 mph 3.7 mph 57 % 0.0 in
13:00 11.5 °F 3.3 °F 1030.7 in NNE 5.6 mph 5.6 mph 57 % 0.0 in
13:04 11.7 °F 3.4 °F 1030.7 in NNE 2.6 mph 2.6 mph 57 % 0.0 in
13:07 11.8 °F 3.6 °F 1030.7 in NNE 3.7 mph 3.7 mph 57 % 0.0 in
13:11 11.8 °F 3.6 °F 1030.7 in ENE 3.7 mph 3.7 mph 57 % 0.0 in
13:13 11.8 °F 3.6 °F 1030.7 in NE 9.3 mph 9.3 mph 57 % 0.0 in
13:18 11.8 °F 3.6 °F 1030.7 in NNE 5.6 mph 5.6 mph 57 % 0.0 in
13:26 11.9 °F 3.7 °F 1030.7 in ESE 7.4 mph 7.4 mph 57 % 0.0 in
13:31 11.9 °F 3.4 °F 1030.7 in NNE 9.3 mph 9.3 mph 56 % 0.0 in
13:32 11.9 °F 3.4 °F 1030.7 in NE 11.1 mph 11.1 mph 56 % 0.0 in
13:33 11.9 °F 3.4 °F 1030.7 in NNE 7.4 mph 7.4 mph 56 % 0.0 in
13:38 11.9 °F 3.4 °F 1030.7 in NW 3.7 mph 3.7 mph 56 % 0.0 in
13:43 12.1 °F 3.8 °F 1030.7 in WNW 3.9 mph 3.9 mph 57 % 0.0 in
13:44 12.1 °F 3.8 °F 1030.7 in NE 3.7 mph 3.7 mph 57 % 0.0 in
13:46 12.1 °F 3.6 °F 1030.7 in ENE 6.1 mph 6.1 mph 56 % 0.0 in
13:49 12.1 °F 3.6 °F 1030.7 in NNE 6.1 mph 6.1 mph 56 % 0.0 in
13:53 12.1 °F 3.6 °F 1030.7 in ENE 5.6 mph 5.6 mph 56 % 0.0 in
14:00 12.1 °F 3.8 °F 1030.7 in ENE 3.7 mph 3.9 mph 57 % 0.0 in
14:05 12.0 °F 3.5 °F 1030.7 in NNE 9.3 mph 9.3 mph 56 % 0.0 in
14:07 12.0 °F 3.5 °F 1030.7 in ENE 5.6 mph 5.6 mph 56 % 0.0 in
14:08 12.0 °F 3.5 °F 1030.7 in NNE 5.6 mph 5.6 mph 56 % 0.0 in
14:13 12.1 °F 3.8 °F 1030.0 in NNE 5.0 mph 5.0 mph 57 % 0.0 in
14:14 12.1 °F 3.8 °F 1030.0 in NNE 11.1 mph 11.1 mph 57 % 0.0 in
14:18 12.1 °F 3.6 °F 1030.0 in NNE 9.3 mph 9.3 mph 56 % 0.0 in
14:20 12.1 °F 3.6 °F 1030.0 in NNW 6.1 mph 6.1 mph 56 % 0.0 in
14:25 12.2 °F 3.9 °F 1030.0 in NNE 7.4 mph 7.4 mph 57 % 0.0 in
14:26 12.2 °F 3.9 °F 1030.0 in NNE 7.4 mph 7.4 mph 57 % 0.0 in
14:31 12.2 °F 3.7 °F 1030.0 in NW 5.6 mph 5.6 mph 56 % 0.0 in
14:32 12.2 °F 3.7 °F 1030.0 in North 5.6 mph 5.6 mph 56 % 0.0 in
14:37 12.2 °F 3.9 °F 1030.0 in ENE 3.7 mph 3.7 mph 57 % 0.0 in
14:39 12.2 °F 3.9 °F 1030.0 in East 3.7 mph 3.7 mph 57 % 0.0 in
14:44 12.2 °F 3.7 °F 1030.0 in NNE 3.7 mph 3.7 mph 56 % 0.0 in
14:53 12.4 °F 4.1 °F 1030.0 in NNE 1.9 mph   57 % 0.0 in
14:54 12.4 °F 4.1 °F 1030.0 in NW 1.4 mph 1.4 mph 57 % 0.0 in
14:59 12.5 °F 4.2 °F 1030.0 in North 1.9 mph 1.9 mph 57 % 0.0 in
15:04 12.5 °F 3.9 °F 1030.0 in NNE 3.7 mph 3.7 mph 56 % 0.0 in
15:05 12.5 °F 3.9 °F 1030.0 in NNE 3.7 mph 3.7 mph 56 % 0.0 in
15:06 12.5 °F 3.9 °F 1030.0 in ENE 3.7 mph 3.7 mph 56 % 0.0 in
15:16 12.3 °F 3.8 °F 1030.0 in ENE 10.0 mph 10.0 mph 56 % 0.0 in
15:17 12.3 °F 3.8 °F 1030.0 in NNE 9.3 mph 9.3 mph 56 % 0.0 in
15:22 12.2 °F 3.7 °F 1030.0 in NW 3.7 mph 3.7 mph 56 % 0.0 in
15:26 12.3 °F 3.8 °F 1030.0 in North 1.9 mph 1.9 mph 56 % 0.0 in
15:33 12.4 °F 3.8 °F 1030.0 in NNE 2.3 mph   56 % 0.0 in
15:34 12.3 °F 3.8 °F 1030.0 in ENE 3.7 mph 3.7 mph 56 % 0.0 in
15:38 12.2 °F 3.7 °F 1030.0 in ENE 2.3 mph 2.3 mph 56 % 0.0 in
15:41 12.2 °F 3.7 °F 1030.0 in West 3.7 mph 3.7 mph 56 % 0.0 in
15:43 12.1 °F 3.6 °F 1030.0 in ENE 3.7 mph 3.7 mph 56 % 0.0 in
15:48 12.0 °F 3.5 °F 1030.0 in NNE 1.9 mph 1.9 mph 56 % 0.0 in
15:50 12.0 °F 3.5 °F 1030.0 in NNE 1.9 mph   56 % 0.0 in
15:53 12.0 °F 3.5 °F 1030.0 in NNE 3.7 mph 3.7 mph 56 % 0.0 in
15:55 12.0 °F 3.5 °F 1030.0 in SSE 1.9 mph 1.9 mph 56 % 0.0 in
15:59 12.0 °F 3.2 °F 1030.0 in WNW 3.7 mph 3.7 mph 55 % 0.0 in
16:01 12.0 °F 3.2 °F 1030.0 in WNW 3.7 mph 3.7 mph 55 % 0.0 in
16:06 11.9 °F 3.1 °F 1030.0 in North 2.6 mph 2.6 mph 55 % 0.0 in
16:11 11.8 °F 3.3 °F 1030.0 in NW 3.7 mph 3.7 mph 56 % 0.0 in
16:17 11.8 °F 3.1 °F 1030.0 in Calm     55 % 0.0 in
16:18 11.8 °F 3.1 °F 1030.0 in Calm     55 % 0.0 in
16:23 11.8 °F 3.1 °F 1030.0 in NE 2.6 mph 2.6 mph 55 % 0.0 in
16:25 11.8 °F 3.1 °F 1030.0 in NNE 2.6 mph 2.6 mph 55 % 0.0 in
16:30 11.8 °F 3.1 °F 1030.0 in ENE 3.7 mph 3.7 mph 55 % 0.0 in
16:31 11.8 °F 3.1 °F 1030.0 in NE 3.7 mph 3.7 mph 55 % 0.0 in
16:36 11.7 °F 2.9 °F 1030.0 in ENE 1.9 mph 1.9 mph 55 % 0.0 in
16:37 11.7 °F 2.9 °F 1030.0 in ENE 1.9 mph 1.9 mph 55 % 0.0 in
16:42 11.6 °F 3.1 °F 1030.0 in NNE 2.3 mph 2.3 mph 56 % 0.0 in
16:47 11.5 °F 2.8 °F 1030.0 in NNW 1.9 mph   55 % 0.0 in
16:50 11.5 °F 2.8 °F 1030.0 in NNW 1.9 mph   55 % 0.0 in
16:53 11.5 °F 2.8 °F 1030.0 in Calm     55 % 0.0 in
16:55 11.5 °F 2.8 °F 1029.0 in North 1.9 mph   55 % 0.0 in
16:58 11.5 °F 2.8 °F 1029.0 in Calm     55 % 0.0 in
17:03 11.4 °F 2.9 °F 1029.0 in Calm     56 % 0.0 in
17:05 11.4 °F 2.9 °F 1029.0 in Calm     56 % 0.0 in
17:10 11.4 °F 2.9 °F 1030.0 in Calm     56 % 0.0 in
17:13 11.4 °F 2.9 °F 1030.0 in West 3.7 mph 3.7 mph 56 % 0.0 in
17:14 11.4 °F 2.9 °F 1030.0 in Calm     56 % 0.0 in
17:18 11.3 °F 2.8 °F 1030.0 in Calm     56 % 0.0 in
17:22 11.3 °F 2.8 °F 1030.0 in WNW 3.7 mph 3.7 mph 56 % 0.0 in
17:23 11.2 °F 2.7 °F 1030.0 in WNW 1.9 mph   56 % 0.0 in
17:28 11.1 °F 2.7 °F 1030.0 in WNW 1.9 mph   56 % 0.0 in
17:30 11.1 °F 2.7 °F 1030.0 in West 1.4 mph   56 % 0.0 in
17:35 11.0 °F 2.6 °F 1030.0 in WSW 2.6 mph 2.6 mph 56 % 0.0 in
17:37 10.9 °F 2.2 °F 1030.0 in West 3.7 mph 3.7 mph 55 % 0.0 in
17:40 10.9 °F 2.2 °F 1030.0 in WNW 3.2 mph 6.4 mph 55 % 0.0 in
17:44 10.8 °F 2.1 °F 1030.0 in WSW 1.9 mph 1.9 mph 55 % 0.0 in
17:46 10.7 °F 2.0 °F 1030.0 in West 1.9 mph 2.3 mph 55 % 0.0 in
17:49 10.7 °F 2.0 °F 1030.0 in WSW 3.7 mph 3.7 mph 55 % 0.0 in
17:54 10.6 °F 1.9 °F 1030.0 in WSW 3.7 mph   55 % 0.0 in
17:55 10.5 °F 1.8 °F 1030.0 in SSW 3.7 mph 3.7 mph 55 % 0.0 in
17:59 10.4 °F 1.7 °F 1030.0 in SSE 1.9 mph   55 % 0.0 in
18:02 10.4 °F 1.7 °F 1030.0 in West 3.7 mph 3.7 mph 55 % 0.0 in
18:05 10.3 °F 1.7 °F 1030.0 in SW 3.7 mph 3.7 mph 55 % 0.0 in
18:10 10.3 °F 1.7 °F 1030.7 in NW 5.6 mph 5.6 mph 55 % 0.0 in
18:11 10.2 °F 1.6 °F 1030.7 in West 5.6 mph 5.6 mph 55 % 0.0 in
18:17 10.2 °F 1.6 °F 1030.7 in West 4.7 mph 4.7 mph 55 % 0.0 in
18:20 10.2 °F 1.6 °F 1030.7 in NW 3.9 mph 3.9 mph 55 % 0.0 in
18:25 6.7 °F 0.6 °F 1032.1 in WNW 1.6 mph 3.2 mph 65 % 0.0 in
18:26 10.1 °F 1.4 °F 1030.7 in Calm     55 % 0.0 in
18:29 10.1 °F 1.4 °F 1030.7 in Calm     55 % 0.0 in
18:34 10.0 °F 1.4 °F 1030.7 in West 7.4 mph 7.4 mph 55 % 0.0 in
18:35 6.6 °F 0.7 °F 1032.1 in Calm   1.6 mph 66 % 0.0 in
18:36 10.0 °F 1.4 °F 1030.7 in East 3.7 mph 3.7 mph 55 % 0.0 in
18:38 10.0 °F 1.4 °F 1030.7 in West 5.6 mph 5.6 mph 55 % 0.0 in
18:41 10.0 °F 1.6 °F 1030.7 in NNE 3.7 mph 3.7 mph 56 % 0.0 in
18:45 6.5 °F 0.6 °F 1032.1 in Calm   3.2 mph 66 % 0.0 in
18:46 10.0 °F 1.6 °F 1030.7 in NE 5.6 mph 5.6 mph 56 % 0.0 in
18:48 10.0 °F 1.6 °F 1030.7 in SW 6.1 mph 6.1 mph 56 % 0.0 in
18:50 10.0 °F 1.6 °F 1030.7 in WSW 7.4 mph 7.4 mph 56 % 0.0 in
18:54 10.0 °F 1.6 °F 1030.7 in SE 7.4 mph 7.4 mph 56 % 0.0 in
18:55 6.5 °F 0.6 °F 1030.7 in North 1.6 mph 3.2 mph 66 % 0.0 in
18:59 9.8 °F 1.4 °F 1030.7 in NE 3.7 mph 3.7 mph 56 % 0.0 in
19:02 9.7 °F 1.3 °F 1030.7 in ENE 6.1 mph 6.1 mph 56 % 0.0 in
19:05 6.3 °F 0.4 °F 1032.1 in North 1.6 mph 3.2 mph 66 % 0.0 in
19:07 9.6 °F 1.2 °F 1030.7 in West 3.7 mph 3.7 mph 56 % 0.0 in
19:12 9.6 °F 1.2 °F 1030.7 in NW 9.3 mph 9.3 mph 56 % 0.0 in
19:13 9.6 °F 1.2 °F 1030.7 in NE 3.7 mph   56 % 0.0 in
19:14 9.6 °F 1.2 °F 1030.7 in ENE 3.7 mph   56 % 0.0 in
19:15 6.1 °F 0.2 °F 1032.1 in Calm   3.2 mph 66 % 0.0 in
19:19 9.4 °F 1.3 °F 1030.7 in NNE 3.5 mph   57 % 0.0 in
19:20 9.4 °F 1.3 °F 1030.7 in ENE 3.7 mph 3.7 mph 57 % 0.0 in
19:25 9.2 °F 1.1 °F 1030.7 in WNW 3.7 mph   57 % 0.0 in
19:27 9.2 °F 1.1 °F 1030.7 in WNW 1.9 mph 1.9 mph 57 % 0.0 in
19:32 9.1 °F 1.0 °F 1030.7 in NNE 3.7 mph 3.7 mph 57 % 0.0 in
19:35 6.0 °F 0.3 °F 1032.1 in NE 3.2 mph 4.8 mph 67 % 0.0 in
19:38 9.0 °F 0.9 °F 1030.7 in ENE 1.4 mph   57 % 0.0 in
19:43 8.9 °F 0.8 °F 1030.7 in ENE 2.6 mph   57 % 0.0 in
19:44 8.9 °F 0.8 °F 1030.7 in North 3.2 mph   57 % 0.0 in
19:45 5.8 °F 0.2 °F 1032.1 in NNE 1.6 mph 4.8 mph 67 % 0.0 in
19:49 8.8 °F 1.0 °F 1030.7 in NE 2.6 mph 2.6 mph 58 % 0.0 in
19:50 8.8 °F 1.0 °F 1030.7 in North 1.9 mph 1.9 mph 58 % 0.0 in
19:55 8.7 °F 0.9 °F 1030.7 in ENE 3.7 mph 3.7 mph 58 % 0.0 in
20:00 8.6 °F 0.8 °F 1030.7 in NNE 1.9 mph 2.6 mph 58 % 0.0 in
20:03 8.6 °F 0.8 °F 1030.7 in ENE 3.7 mph 3.7 mph 58 % 0.0 in
20:05 8.6 °F 0.8 °F 1030.7 in North 1.6 mph 4.8 mph 58 % 0.0 in
20:10 8.5 °F 0.9 °F 1030.7 in ENE 5.6 mph 5.6 mph 59 % 0.0 in
20:15 8.5 °F 0.9 °F 1030.7 in West 1.9 mph   59 % 0.0 in
20:18 8.4 °F 0.8 °F 1030.7 in NNW 1.9 mph 1.9 mph 59 % 0.0 in
20:24 8.3 °F 0.7 °F 1030.7 in WNW 1.9 mph 1.9 mph 59 % 0.0 in
20:25 5.5 °F 0.1 °F 1032.1 in West 1.6 mph 3.2 mph 68 % 0.0 in
20:34 8.3 °F 1.0 °F 1032.1 in North 4.7 mph 4.7 mph 60 % 0.0 in
20:35 5.5 °F 0.1 °F 1032.1 in West 1.6 mph 3.2 mph 68 % 0.0 in
20:36 8.3 °F 1.0 °F 1032.1 in SE 3.7 mph 3.7 mph 60 % 0.0 in
20:37 8.3 °F 1.0 °F 1032.1 in SE 1.9 mph 1.9 mph 60 % 0.0 in
20:42 8.3 °F 1.0 °F 1032.1 in East 3.7 mph 3.7 mph 60 % 0.0 in
20:43 8.3 °F 1.0 °F 1032.1 in ENE 3.7 mph 3.7 mph 60 % 0.0 in
20:45 5.5 °F 0.1 °F 1032.1 in NNW 4.8 mph 6.4 mph 68 % 0.0 in
20:48 8.2 °F 1.1 °F 1032.1 in NE 5.6 mph 5.6 mph 61 % 0.0 in
20:49 8.2 °F 1.1 °F 1032.1 in NE 5.6 mph 5.6 mph 61 % 0.0 in
20:53 8.2 °F 1.1 °F 1032.1 in ESE 1.9 mph 1.9 mph 61 % 0.0 in
20:55 5.3 °F -0.1 °F 1032.1 in NNE 1.6 mph 6.4 mph 68 % 0.0 in
20:57 8.1 °F 1.0 °F 1032.1 in ESE 1.9 mph 1.9 mph 61 % 0.0 in
20:58 8.1 °F 1.0 °F 1032.1 in NNE 3.7 mph 3.7 mph 61 % 0.0 in
21:05 5.1 °F -0.3 °F 1032.1 in Calm   3.2 mph 68 % 0.0 in
21:06 8.0 °F 0.9 °F 1032.1 in NW 1.9 mph 1.9 mph 61 % 0.0 in
21:07 8.0 °F 0.9 °F 1032.1 in NW 1.9 mph 1.9 mph 61 % 0.0 in
21:12 8.0 °F 0.9 °F 1032.1 in NNE 3.2 mph 3.2 mph 61 % 0.0 in
21:13 8.0 °F 0.9 °F 1032.1 in SW 3.7 mph 3.7 mph 61 % 0.0 in
21:15 5.1 °F -0.3 °F 1032.1 in NW 1.6 mph 1.6 mph 68 % 0.0 in
21:18 7.9 °F 0.8 °F 1032.1 in ENE 2.3 mph 2.3 mph 61 % 0.0 in
21:20 7.9 °F 0.8 °F 1032.1 in WNW 3.7 mph 3.7 mph 61 % 0.0 in
21:21 7.9 °F 0.8 °F 1032.1 in NNE 5.6 mph 5.6 mph 61 % 0.0 in
21:25 7.8 °F 0.9 °F 1032.1 in West 1.9 mph 1.9 mph 62 % 0.0 in
21:28 7.8 °F 0.9 °F 1032.1 in NW 5.6 mph 5.6 mph 62 % 0.0 in
21:35 5.0 °F -0.2 °F 1032.1 in NW 1.6 mph 3.2 mph 69 % 0.0 in
21:38 7.7 °F 0.9 °F 1032.1 in NNW 3.7 mph 3.7 mph 62 % 0.0 in
21:40 7.7 °F 0.9 °F 1030.7 in West 3.9 mph 3.9 mph 62 % 0.0 in
21:45 7.6 °F 0.8 °F 1030.7 in WNW 1.9 mph 1.9 mph 62 % 0.0 in
21:50 7.5 °F 0.7 °F 1030.7 in West 2.3 mph 2.3 mph 62 % 0.0 in
21:52 7.5 °F 0.7 °F 1030.7 in SE 3.7 mph 3.7 mph 62 % 0.0 in
21:55 5.1 °F 0.1 °F 1032.1 in NE 3.2 mph 3.2 mph 70 % 0.0 in
21:57 7.6 °F 0.8 °F 1032.1 in West 5.6 mph 5.6 mph 62 % 0.0 in
21:58 7.6 °F 0.8 °F 1032.1 in West 5.6 mph 5.6 mph 62 % 0.0 in
22:05 5.0 °F 0.0 °F 1032.1 in NNE 1.6 mph 3.2 mph 70 % 0.0 in
22:07 7.6 °F 1.0 °F 1032.1 in WNW 5.6 mph 5.6 mph 63 % 0.0 in
22:08 7.5 °F 0.7 °F 1032.1 in ESE 3.7 mph 3.7 mph 62 % 0.0 in
22:14 7.5 °F 0.7 °F 1032.1 in WNW 3.7 mph 3.7 mph 62 % 0.0 in
22:15 5.0 °F 0.0 °F 1032.1 in NNE 1.6 mph 3.2 mph 70 % 0.0 in
22:19 7.4 °F 0.6 °F 1032.1 in SW 3.7 mph 3.7 mph 62 % 0.0 in
22:23 7.4 °F 0.8 °F 1032.1 in NW 3.7 mph 3.7 mph 63 % 0.0 in
22:24 7.4 °F 0.8 °F 1032.1 in WNW 3.7 mph 3.7 mph 63 % 0.0 in
22:25 5.0 °F 0.0 °F 1030.7 in NE 1.6 mph 3.2 mph 70 % 0.0 in
22:29 7.4 °F 0.8 °F 1032.1 in WSW 3.7 mph 3.7 mph 63 % 0.0 in
22:30 7.4 °F 0.8 °F 1032.1 in South 3.7 mph 3.7 mph 63 % 0.0 in
22:35 7.3 °F 0.7 °F 1032.1 in West 3.7 mph 3.7 mph 63 % 0.0 in
22:36 7.3 °F 0.7 °F 1032.1 in West 3.7 mph 3.7 mph 63 % 0.0 in
22:38 7.3 °F 0.7 °F 1032.1 in Calm     63 % 0.0 in
22:41 7.2 °F 0.6 °F 1032.1 in West 1.9 mph   63 % 0.0 in
22:45 4.7 °F -0.3 °F 1030.7 in NW 1.6 mph 4.8 mph 70 % 0.0 in
22:46 7.1 °F 0.5 °F 1032.1 in Calm     63 % 0.0 in
22:47 7.1 °F 0.5 °F 1032.1 in Calm     63 % 0.0 in
22:49 7.0 °F 0.4 °F 1032.1 in Calm     63 % 0.0 in
22:53 7.0 °F 0.4 °F 1032.1 in Calm     63 % 0.0 in
22:55 4.7 °F -0.3 °F 1030.7 in NW 1.6 mph 4.8 mph 70 % 0.0 in
22:58 7.0 °F 0.4 °F 1032.1 in West 1.9 mph 1.9 mph 63 % 0.0 in
23:01 7.0 °F 0.7 °F 1032.1 in Calm     64 % 0.0 in
23:05 4.9 °F 0.1 °F 1032.1 in NNE 1.6 mph 8.0 mph 71 % 0.0 in
23:07 7.0 °F 0.7 °F 1032.1 in West 1.9 mph 1.9 mph 64 % 0.0 in
23:12 7.0 °F 0.7 °F 1032.1 in NNE 5.6 mph 5.6 mph 64 % 0.0 in
23:15 4.8 °F 0.0 °F 1032.1 in Calm   4.8 mph 71 % 0.0 in
23:17 7.0 °F 0.7 °F 1032.1 in NW 3.9 mph 3.9 mph 64 % 0.0 in
23:18 7.0 °F 0.7 °F 1032.1 in WNW 5.6 mph 5.6 mph 64 % 0.0 in
23:19 7.0 °F 0.7 °F 1032.1 in NNW 3.7 mph 3.7 mph 64 % 0.0 in
23:24 7.0 °F 0.7 °F 1032.1 in WNW 3.7 mph 3.7 mph 64 % 0.0 in
23:25 7.0 °F 0.7 °F 1032.1 in NNE 3.9 mph 3.9 mph 64 % 0.0 in
23:29 7.0 °F 0.7 °F 1032.1 in SE 5.6 mph 5.6 mph 64 % 0.0 in
23:35 4.8 °F 0.2 °F 1032.1 in Calm   3.2 mph 72 % 0.0 in
23:36 7.0 °F 0.7 °F 1032.1 in NNW 1.9 mph   64 % 0.0 in
23:37 7.0 °F 0.7 °F 1032.1 in Calm     64 % 0.0 in
23:41 7.0 °F 0.7 °F 1032.1 in Calm     64 % 0.0 in
23:45 4.6 °F -0.2 °F 1032.1 in NNW 1.6 mph 3.2 mph 71 % 0.0 in
23:46 7.0 °F 0.7 °F 1032.1 in Calm     64 % 0.0 in
23:48 7.0 °F 0.7 °F 1032.1 in Calm     64 % 0.0 in
23:52 7.0 °F 0.7 °F 1032.1 in Calm     64 % 0.0 in
23:55 4.5 °F -0.1 °F 1030.7 in WNW 1.6 mph 3.2 mph 72 % 0.0 in
23:57 7.0 °F 0.7 °F 1032.1 in Calm     64 % 0.0 in
23:59 7.0 °F 0.7 °F 1032.1 in Calm     64 % 0.0 in
Meteo Sesrovires
Elogis d' Weather Underground - 4 mb

Guio original per  Jim McMurry - jmcmurry@mwt.net Adaptat per a la plantilla per  Wim van der Kuil - Leuven-Template.eu

Trobareu la nostra informacio del temps tambe a:

Weather Underground

AWEKAS